This is the latest recevied weather packets stored in our database for station/object MeshWX-1. If no packets are shown the sender has not sent any weather packets the latest 10 day(s).
| Time | Temp. | Humidity | Pressure | Rain* | Wind** | Luminosity | Snow |
|---|---|---|---|---|---|---|---|
| 1788475670 | 20° C | 44% | 998.5 hPa | - | - | - | - |
| 1788474940 | 21.11° C | 42% | 998.8 hPa | - | - | - | - |
| 1788474639 | 21.11° C | 42% | 998.8 hPa | - | - | - | - |
| 1788473647 | 21.11° C | 42% | 998.8 hPa | - | - | - | - |
| 1788473564 | 21.11° C | 42% | 998.8 hPa | - | - | - | - |
| 1788472780 | 20.56° C | 45% | 998.7 hPa | - | - | - | - |
| 1788472479 | 20.56° C | 45% | 998.7 hPa | - | - | - | - |
| 1788471424 | 20.56° C | 45% | 998.7 hPa | - | - | - | - |
| 1788470620 | 21.11° C | 41% | 998.6 hPa | - | - | - | - |
| 1788470319 | 21.11° C | 41% | 998.6 hPa | - | - | - | - |
| 1788469360 | 21.11° C | 41% | 998.6 hPa | - | - | - | - |
| 1788469315 | 21.11° C | 41% | 998.6 hPa | - | - | - | - |
| 1788468520 | 21.67° C | 41% | 998.7 hPa | - | - | - | - |
| 1788468219 | 21.67° C | 41% | 998.7 hPa | - | - | - | - |
| 1788467281 | 21.67° C | 41% | 998.7 hPa | - | - | - | - |
| 1788466480 | 22.78° C | 39% | 998.6 hPa | - | - | - | - |
| 1788466179 | 22.78° C | 39% | 998.6 hPa | - | - | - | - |
| 1788465283 | 22.78° C | 39% | 998.6 hPa | - | - | - | - |
| 1788464439 | 23.89° C | 36% | 998.3 hPa | - | - | - | - |
| 1788464199 | 23.89° C | 36% | 998.3 hPa | - | - | - | - |
| 1788463321 | 23.89° C | 36% | 998.3 hPa | - | - | - | - |
| 1788462476 | 25.56° C | 31% | 998.1 hPa | - | - | - | - |
| 1788462219 | 25.56° C | 31% | 998.1 hPa | - | - | - | - |
| 1788461361 | 25.56° C | 31% | 998.1 hPa | - | - | - | - |
| 1788461305 | 25.56° C | 31% | 998.1 hPa | - | - | - | - |
* Rain since midnight (hover to see other rain measurements)
** Current wind speed in m/s (hover to see current wind gust speed)